Terminal Aerodrome Forecast
Issued by NWS Charleston, WV

Current Version | Previous Version | Graphics & Text | Print | Product List | Glossary On
Versions: 1 2 3 4 5 6 7 8 9 10 11 12 13 14 15 16 17 18 19 20 21 22 23
000
FTUS41 KRLX 011400 AAA
TAFPKB
TAF AMD
KPKB 011431Z 0115/0212 03003KT 5SM BR OVC006
     FM011700 27004KT 6SM HZ BKN020
     FM012100 25003KT 6SM HZ SCT025
     FM020500 00000KT 5SM BR FEW001
     FM020800 00000KT 2SM BR SCT002
     FM020900 00000KT 3/4SM BR SCT002=

USA.gov is the U.S. government's official web portal to all federal, state and local government web resources and services.